Kezdőlap
METAR-TAF:

METAR-TAF

Repülőterek :

Narsarsuaq, Grönland

földrajzi szélesség: 61-10N, földrajzi hosszúság: 045-25W, magasság: 34 m

Jelenlegi meteorológiai megfigyelések

A jelentés 24 perccel ezelõtt készült, 10:50 UTC
Kelet-északkeleti szél 3 kt
Hőmérséklet -10°C
Páratartalom 67%
Légköri nyomás 997 hPa
Látótávolság 10 km, vagy több
Szakadozott felhőzet 17000 lábon

METAR: BGBW 051050Z 06003KT 9999 BKN170 M10/M15 Q0997

Idő: 08:14 (11:14 UTC)

Előrejelzés

A jelentés 3 órával és 3 perccel ezelõtt készült, 08:11 UTC
Az előrejelzés 05-én 09 óra UTC és 05-én 18 óra UTC között érvényes
Különbözõ irányokból fújó szél 8 kt
Látótávolság 10 km, vagy több
Kevés felhő 7000 lábon
Szakadozott felhőzet 16000 lábon
05-én 12 óra UTC és 05-én 18 óra UTC között ideiglenes
Nyugat-délnyugati szél 8 kt
Szakadozott felhőzet 7000 lábon

TAF: BGBW 050811Z 0509/0518 VRB08KT 9999 FEW070 BKN160 TEMPO 0512/0518 24008KT BKN070

Meteorológiai megfigyelések és előrejelzések több, mint 4000 repülőtéren (METAR és TAF jelentéseket).

A térképen piros és sárga pontok jelzik az elérhető meteorológiai állomásokat.

Mozgassa az egeret a pont fölött, hogy megjelenjen az állomás neve.

Azután kattintson az időjárási megfigyelések és előrejelzések megtekintéséhez.

A térkép megváltoztatása: kattintson a fekete keresztel jelölt zöld gombra ráközelítéshez, a vonallal jelölt zöld gombra távolításhoz, vagy a zöld nyilakra a szomszédos térképek eléréséhez.


METAR-TAF: